createdAt,value
2022-10-31T00:00:01.602Z,84
2022-10-31T00:01:14.707Z,84
2022-10-31T00:02:27.244Z,84
2022-10-31T00:03:41.047Z,84
2022-10-31T00:04:54.206Z,84
2022-10-31T00:06:06.770Z,85
2022-10-31T00:07:19.526Z,85
2022-10-31T00:08:32.745Z,85
2022-10-31T00:09:45.611Z,85
2022-10-31T00:10:58.732Z,85
2022-10-31T00:12:11.731Z,85
2022-10-31T00:13:24.916Z,85
2022-10-31T00:14:38.082Z,85
2022-10-31T00:15:50.735Z,85
2022-10-31T00:17:03.722Z,86
2022-10-31T00:18:16.458Z,86
2022-10-31T00:19:30.844Z,86
2022-10-31T00:20:42.740Z,85
2022-10-31T00:21:55.750Z,86
2022-10-31T00:23:08.760Z,85
2022-10-31T00:24:21.730Z,86
2022-10-31T00:25:34.725Z,86
2022-10-31T00:26:47.818Z,86
2022-10-31T00:28:00.948Z,86
2022-10-31T00:29:13.863Z,86
2022-10-31T00:30:26.747Z,86
2022-10-31T00:31:39.733Z,86
2022-10-31T00:32:52.787Z,86
2022-10-31T00:34:05.750Z,86
2022-10-31T00:35:18.736Z,86
2022-10-31T00:36:31.708Z,86
2022-10-31T00:37:44.887Z,86
2022-10-31T00:38:57.711Z,85
2022-10-31T00:40:10.726Z,85
2022-10-31T00:41:23.859Z,85
2022-10-31T00:42:36.873Z,85
2022-10-31T00:43:49.735Z,85
2022-10-31T00:45:02.712Z,85
2022-10-31T00:46:15.750Z,85
2022-10-31T00:47:28.902Z,86
2022-10-31T00:48:41.603Z,85
2022-10-31T00:49:54.718Z,85
2022-10-31T00:51:07.720Z,85
2022-10-31T00:52:20.735Z,85
2022-10-31T00:53:33.525Z,85
2022-10-31T00:54:46.826Z,86
2022-10-31T00:55:59.594Z,86
2022-10-31T00:57:12.897Z,86
2022-10-31T00:58:25.757Z,86
2022-10-31T00:59:38.771Z,86
2022-10-31T01:00:52.818Z,86
2022-10-31T01:02:04.760Z,86
2022-10-31T01:03:17.903Z,86
2022-10-31T01:04:30.750Z,85
2022-10-31T01:05:43.802Z,85
2022-10-31T01:06:56.733Z,85
2022-10-31T01:08:09.736Z,86
2022-10-31T01:09:22.838Z,86
2022-10-31T01:10:35.766Z,86
2022-10-31T01:11:48.728Z,86
2022-10-31T01:13:01.990Z,86
2022-10-31T01:14:14.701Z,86
2022-10-31T01:15:27.751Z,86
2022-10-31T01:16:40.723Z,86
2022-10-31T01:17:53.826Z,86
2022-10-31T01:19:06.892Z,85
2022-10-31T01:20:19.986Z,86
2022-10-31T01:21:32.777Z,86
2022-10-31T01:22:45.724Z,86
2022-10-31T01:23:58.741Z,85
2022-10-31T01:25:11.717Z,85
2022-10-31T01:26:24.708Z,86
2022-10-31T01:27:37.700Z,86
2022-10-31T01:28:50.718Z,86
2022-10-31T01:30:03.732Z,86
2022-10-31T01:31:16.735Z,86
2022-10-31T01:32:29.733Z,86
2022-10-31T01:33:42.785Z,86
2022-10-31T01:34:55.691Z,86
2022-10-31T01:36:08.711Z,86
2022-10-31T01:37:21.819Z,86
2022-10-31T01:38:34.703Z,86
2022-10-31T01:39:47.731Z,86
2022-10-31T01:41:00.713Z,86
2022-10-31T01:42:13.766Z,86
2022-10-31T01:43:26.724Z,86
2022-10-31T01:44:39.740Z,86
2022-10-31T01:45:52.749Z,86
2022-10-31T01:47:05.724Z,86
2022-10-31T01:48:18.720Z,86
2022-10-31T01:49:31.739Z,86
2022-10-31T01:50:44.734Z,85
2022-10-31T01:51:57.740Z,85
2022-10-31T01:53:10.747Z,85
2022-10-31T01:54:23.784Z,85
2022-10-31T01:55:36.779Z,85
2022-10-31T01:56:49.732Z,85
2022-10-31T01:58:03.035Z,85
2022-10-31T01:59:15.757Z,85
2022-10-31T02:00:29.071Z,85
2022-10-31T02:01:41.930Z,85
2022-10-31T02:02:54.907Z,85
2022-10-31T02:04:07.800Z,85
2022-10-31T02:05:20.885Z,85
2022-10-31T02:06:33.736Z,85
2022-10-31T02:07:46.727Z,86
2022-10-31T02:08:59.734Z,86
2022-10-31T02:10:12.744Z,86
2022-10-31T02:11:25.759Z,87
2022-10-31T02:12:38.209Z,87
2022-10-31T02:13:54.386Z,87
2022-10-31T02:15:04.742Z,87
2022-10-31T02:16:17.809Z,87
2022-10-31T02:17:30.723Z,87
2022-10-31T02:18:43.604Z,87
2022-10-31T02:19:56.755Z,87
2022-10-31T02:21:09.738Z,87
2022-10-31T02:22:22.898Z,87
2022-10-31T02:23:35.746Z,87
2022-10-31T02:24:48.729Z,87
2022-10-31T02:26:01.752Z,87
2022-10-31T02:27:14.716Z,87
2022-10-31T02:28:27.767Z,87
2022-10-31T02:29:41.720Z,87
2022-10-31T02:30:53.735Z,87
2022-10-31T02:32:06.745Z,87
2022-10-31T02:33:19.920Z,87
2022-10-31T02:34:32.752Z,87
2022-10-31T02:35:45.742Z,87
2022-10-31T02:36:59.009Z,87
2022-10-31T02:38:11.819Z,87
2022-10-31T02:39:24.741Z,87
2022-10-31T02:40:37.747Z,87
2022-10-31T02:41:50.762Z,87
2022-10-31T02:43:04.171Z,88
2022-10-31T02:44:16.781Z,88
2022-10-31T02:45:29.721Z,88
2022-10-31T02:46:42.921Z,88
2022-10-31T02:47:55.761Z,88
2022-10-31T02:49:08.723Z,88
2022-10-31T02:50:21.754Z,88
2022-10-31T02:51:34.708Z,88
2022-10-31T02:52:47.751Z,88
2022-10-31T02:54:00.730Z,88
2022-10-31T02:55:13.738Z,88
2022-10-31T02:56:26.721Z,88
2022-10-31T02:57:39.765Z,88
2022-10-31T02:58:52.836Z,88
2022-10-31T03:00:05.728Z,88
2022-10-31T03:01:18.804Z,88
2022-10-31T03:02:31.875Z,88
2022-10-31T03:03:44.720Z,88
2022-10-31T03:04:57.707Z,88
2022-10-31T03:06:10.722Z,88
2022-10-31T03:07:23.719Z,88
2022-10-31T03:08:36.719Z,88
2022-10-31T03:09:49.755Z,88
2022-10-31T03:11:02.702Z,88
2022-10-31T03:12:15.847Z,88
2022-10-31T03:13:28.718Z,88
2022-10-31T03:14:41.725Z,88
2022-10-31T03:15:55.295Z,88
2022-10-31T03:17:07.881Z,88
2022-10-31T03:18:20.728Z,89
2022-10-31T03:19:33.745Z,89
2022-10-31T03:20:46.703Z,89
2022-10-31T03:21:59.698Z,89
2022-10-31T03:23:12.785Z,89
2022-10-31T03:24:25.723Z,89
2022-10-31T03:25:38.729Z,89
2022-10-31T03:26:51.804Z,89
2022-10-31T03:28:06.033Z,89
2022-10-31T03:29:17.724Z,89
2022-10-31T03:30:30.725Z,89
2022-10-31T03:31:43.714Z,89
2022-10-31T03:32:57.176Z,89
2022-10-31T03:34:09.705Z,89
2022-10-31T03:35:22.723Z,89
2022-10-31T03:36:35.726Z,89
2022-10-31T03:37:48.710Z,89
2022-10-31T03:39:01.717Z,89
2022-10-31T03:40:14.709Z,88
2022-10-31T03:41:27.715Z,88
2022-10-31T03:42:40.694Z,88
2022-10-31T03:43:53.727Z,88
2022-10-31T03:45:06.711Z,88
2022-10-31T03:46:19.724Z,88
2022-10-31T03:47:32.720Z,89
2022-10-31T03:48:45.589Z,89
2022-10-31T03:49:58.737Z,89
2022-10-31T03:51:11.716Z,89
2022-10-31T03:52:24.846Z,89
2022-10-31T03:53:37.981Z,89
2022-10-31T03:54:50.719Z,89
2022-10-31T03:56:03.743Z,89
2022-10-31T03:57:16.621Z,89
2022-10-31T03:58:29.713Z,89
2022-10-31T03:59:42.630Z,89
2022-10-31T04:25:15.771Z,89
2022-10-31T04:26:28.666Z,89
2022-10-31T04:27:41.657Z,89
2022-10-31T04:28:54.518Z,89
2022-10-31T04:30:07.635Z,89
2022-10-31T04:31:20.656Z,89
2022-10-31T04:32:33.666Z,89
2022-10-31T04:33:46.694Z,89
2022-10-31T04:34:59.631Z,89
2022-10-31T04:36:12.805Z,88
2022-10-31T04:37:25.943Z,88
2022-10-31T04:38:38.626Z,88
2022-10-31T04:39:51.758Z,88
2022-10-31T04:41:04.616Z,88
2022-10-31T04:42:17.639Z,88
2022-10-31T04:43:30.649Z,88
2022-10-31T04:44:43.612Z,88
2022-10-31T04:45:56.596Z,88
2022-10-31T04:47:09.648Z,88
2022-10-31T04:48:22.616Z,88
2022-10-31T04:49:35.636Z,88
2022-10-31T04:50:48.635Z,88
2022-10-31T04:52:01.614Z,88
2022-10-31T04:53:14.631Z,88
2022-10-31T04:54:27.633Z,88
2022-10-31T04:55:40.682Z,88
2022-10-31T04:56:53.930Z,88
2022-10-31T04:58:06.805Z,88
2022-10-31T04:59:19.634Z,89
2022-10-31T05:00:32.621Z,89
2022-10-31T05:01:45.751Z,89
2022-10-31T05:02:59.077Z,89
2022-10-31T05:04:11.666Z,89
2022-10-31T05:05:24.649Z,89
2022-10-31T05:06:37.658Z,89
2022-10-31T05:07:50.633Z,89
2022-10-31T05:09:03.624Z,89
2022-10-31T05:10:16.691Z,89
2022-10-31T05:11:29.648Z,89
2022-10-31T05:12:42.800Z,89
2022-10-31T05:13:55.646Z,89
2022-10-31T05:15:08.635Z,89
2022-10-31T05:16:21.634Z,89
2022-10-31T05:17:34.621Z,89
2022-10-31T05:18:47.510Z,89
2022-10-31T05:20:01.098Z,89
2022-10-31T05:21:13.618Z,89
2022-10-31T05:22:26.924Z,89
2022-10-31T05:23:42.051Z,89
2022-10-31T05:24:52.619Z,89
2022-10-31T05:26:05.631Z,89
2022-10-31T05:27:18.666Z,89
2022-10-31T05:28:31.659Z,90
2022-10-31T05:29:44.530Z,90
2022-10-31T05:30:57.803Z,90
2022-10-31T05:32:10.683Z,90
2022-10-31T05:33:23.522Z,90
2022-10-31T05:34:36.674Z,90
2022-10-31T05:35:49.696Z,90
2022-10-31T05:37:02.690Z,90
2022-10-31T05:38:15.492Z,90
2022-10-31T05:39:28.642Z,90
2022-10-31T05:40:41.663Z,90
2022-10-31T05:41:54.817Z,90
2022-10-31T05:43:07.656Z,90
2022-10-31T05:44:20.654Z,90
2022-10-31T05:45:33.639Z,90
2022-10-31T05:46:46.780Z,90
2022-10-31T05:47:59.799Z,90
2022-10-31T05:49:12.792Z,90
2022-10-31T05:50:25.641Z,90
2022-10-31T05:51:38.843Z,90
2022-10-31T05:52:51.749Z,90
2022-10-31T05:54:04.794Z,90
2022-10-31T05:55:17.680Z,90
2022-10-31T05:56:30.691Z,90
2022-10-31T05:57:43.950Z,90
2022-10-31T05:58:56.639Z,90
2022-10-31T06:00:09.611Z,90
2022-10-31T06:01:22.709Z,90
2022-10-31T06:02:35.689Z,90
2022-10-31T06:03:48.691Z,91
2022-10-31T06:05:02.174Z,91
2022-10-31T06:06:14.346Z,91
2022-10-31T06:07:27.645Z,91
2022-10-31T06:08:40.710Z,91
2022-10-31T06:09:53.622Z,91
2022-10-31T06:11:06.684Z,91
2022-10-31T06:12:19.658Z,91
2022-10-31T06:13:32.662Z,91
2022-10-31T06:14:45.662Z,91
2022-10-31T06:15:58.027Z,91
2022-10-31T06:17:11.637Z,91
2022-10-31T06:18:24.608Z,91
2022-10-31T06:19:37.753Z,91
2022-10-31T06:20:50.524Z,91
2022-10-31T06:22:03.788Z,91
2022-10-31T06:23:16.654Z,91
2022-10-31T06:24:29.631Z,91
2022-10-31T06:25:42.505Z,91
2022-10-31T06:26:55.520Z,91
2022-10-31T06:28:08.634Z,91
2022-10-31T06:29:21.722Z,91
2022-10-31T06:30:34.799Z,91
2022-10-31T06:31:47.801Z,91
2022-10-31T06:33:00.921Z,91
2022-10-31T06:34:13.632Z,91
2022-10-31T06:35:26.804Z,92
2022-10-31T06:36:39.543Z,92
2022-10-31T06:37:52.646Z,92
2022-10-31T06:39:05.697Z,92
2022-10-31T06:40:18.522Z,92
2022-10-31T06:41:31.656Z,92
2022-10-31T06:42:44.518Z,92
2022-10-31T06:43:57.640Z,92
2022-10-31T06:45:10.779Z,92
2022-10-31T06:46:23.648Z,92
2022-10-31T06:47:50.887Z,92
2022-10-31T06:48:50.160Z,92
2022-10-31T06:50:02.645Z,92
2022-10-31T06:51:15.650Z,92
2022-10-31T06:52:28.653Z,92
2022-10-31T06:53:41.647Z,92
2022-10-31T06:54:54.639Z,92
2022-10-31T06:56:07.689Z,92
2022-10-31T06:57:20.637Z,92
2022-10-31T06:58:33.655Z,91
2022-10-31T06:59:46.652Z,92
2022-10-31T07:00:59.679Z,92
2022-10-31T07:02:12.757Z,92
2022-10-31T07:03:25.652Z,92
2022-10-31T07:04:38.629Z,92
2022-10-31T07:05:51.715Z,92
2022-10-31T07:07:04.630Z,92
2022-10-31T07:08:17.633Z,92
2022-10-31T07:09:30.746Z,92
2022-10-31T07:10:43.841Z,92
2022-10-31T07:11:56.680Z,92
2022-10-31T07:14:22.854Z,92
2022-10-31T07:15:35.619Z,92
2022-10-31T07:16:48.622Z,92
2022-10-31T07:18:01.729Z,92
2022-10-31T07:19:14.345Z,92
2022-10-31T07:20:27.652Z,91
2022-10-31T07:21:40.747Z,91
2022-10-31T07:22:53.767Z,91
2022-10-31T07:24:06.688Z,91
2022-10-31T07:25:19.643Z,91
2022-10-31T07:26:32.639Z,91
2022-10-31T07:27:45.627Z,91
2022-10-31T07:28:58.629Z,91
2022-10-31T07:30:11.674Z,91
2022-10-31T07:31:24.634Z,91
2022-10-31T07:32:37.632Z,91
2022-10-31T07:33:50.633Z,91
2022-10-31T07:35:03.606Z,91
2022-10-31T07:36:16.710Z,91
2022-10-31T07:37:29.721Z,91
2022-10-31T07:38:42.660Z,90
2022-10-31T07:39:55.623Z,90
2022-10-31T07:41:08.660Z,90
2022-10-31T07:42:21.653Z,90
2022-10-31T07:43:34.641Z,90
2022-10-31T07:44:47.630Z,90
2022-10-31T07:46:00.620Z,90
2022-10-31T07:47:13.500Z,90
2022-10-31T07:48:26.642Z,90
2022-10-31T07:49:39.640Z,90
2022-10-31T07:50:52.637Z,90
2022-10-31T07:52:05.659Z,90
2022-10-31T07:53:18.620Z,90
2022-10-31T07:54:31.667Z,90
2022-10-31T07:55:44.619Z,90
2022-10-31T07:56:57.637Z,90
2022-10-31T07:58:10.506Z,90
2022-10-31T07:59:23.632Z,91
2022-10-31T08:00:36.712Z,91
2022-10-31T08:01:49.616Z,91
2022-10-31T08:03:03.044Z,91
2022-10-31T08:04:16.677Z,91
2022-10-31T08:05:28.658Z,91
2022-10-31T08:06:41.649Z,91
2022-10-31T08:07:54.505Z,91
2022-10-31T08:09:07.630Z,91
2022-10-31T08:10:20.625Z,91
2022-10-31T08:11:33.668Z,89
2022-10-31T08:12:46.663Z,89
2022-10-31T08:13:59.920Z,89
2022-10-31T08:15:12.685Z,89
2022-10-31T08:16:25.684Z,90
2022-10-31T08:17:38.954Z,90
2022-10-31T08:18:51.627Z,90
2022-10-31T08:20:04.620Z,90
2022-10-31T08:21:17.760Z,90
2022-10-31T08:22:30.664Z,90
2022-10-31T08:23:43.586Z,90
2022-10-31T08:24:56.752Z,90
2022-10-31T08:26:09.622Z,90
2022-10-31T08:27:22.689Z,90
2022-10-31T08:28:35.664Z,90
2022-10-31T08:29:48.623Z,90
2022-10-31T08:31:01.632Z,90
2022-10-31T08:32:14.340Z,90
2022-10-31T08:33:27.652Z,90
2022-10-31T08:34:40.633Z,89
2022-10-31T08:35:53.630Z,89
2022-10-31T08:37:06.690Z,89
2022-10-31T08:38:19.527Z,89
2022-10-31T08:39:32.637Z,89
2022-10-31T08:40:45.629Z,88
2022-10-31T08:41:58.664Z,88
2022-10-31T08:43:11.647Z,88
2022-10-31T08:44:24.649Z,88
2022-10-31T08:45:37.631Z,88
2022-10-31T08:46:50.673Z,88
2022-10-31T08:48:04.170Z,88
2022-10-31T08:49:16.431Z,88
2022-10-31T08:50:29.539Z,88
2022-10-31T08:51:42.632Z,87
2022-10-31T08:53:05.026Z,86
2022-10-31T08:54:08.621Z,86
2022-10-31T08:55:21.638Z,86
2022-10-31T08:56:34.650Z,86
2022-10-31T08:57:47.625Z,85
2022-10-31T08:59:00.729Z,85
2022-10-31T09:00:13.636Z,85
2022-10-31T09:01:26.732Z,85
2022-10-31T09:02:39.590Z,84
2022-10-31T09:03:52.669Z,84
2022-10-31T09:05:05.785Z,84
2022-10-31T09:06:18.715Z,84
2022-10-31T09:07:31.657Z,83
2022-10-31T09:08:44.634Z,83
2022-10-31T09:09:57.637Z,83
2022-10-31T09:11:10.622Z,83
2022-10-31T09:12:23.607Z,83
2022-10-31T09:13:41.242Z,83
2022-10-31T09:14:49.630Z,83
2022-10-31T09:16:02.644Z,83
2022-10-31T09:17:15.646Z,83
2022-10-31T09:18:28.658Z,83
2022-10-31T09:19:41.627Z,83
2022-10-31T09:20:54.931Z,82
2022-10-31T09:22:07.770Z,82
2022-10-31T09:23:20.621Z,82
2022-10-31T09:24:33.662Z,82
2022-10-31T09:25:50.596Z,82
2022-10-31T09:26:59.623Z,81
2022-10-31T09:28:12.627Z,81
2022-10-31T09:29:25.719Z,81
2022-10-31T09:30:38.763Z,80
2022-10-31T09:31:51.648Z,81
2022-10-31T09:33:04.810Z,81
2022-10-31T09:34:17.218Z,81
2022-10-31T09:35:30.682Z,81
2022-10-31T09:36:43.629Z,80
2022-10-31T09:37:57.147Z,80
2022-10-31T09:39:09.801Z,80
2022-10-31T09:40:22.746Z,80
2022-10-31T09:41:35.653Z,80
2022-10-31T09:42:48.606Z,80
2022-10-31T09:44:01.625Z,80
2022-10-31T09:45:14.634Z,80
2022-10-31T09:46:27.666Z,80
2022-10-31T09:47:40.612Z,80
2022-10-31T09:48:53.611Z,80
2022-10-31T09:50:06.786Z,80
2022-10-31T09:51:19.628Z,80
2022-10-31T09:52:32.633Z,80
2022-10-31T09:53:45.627Z,80
2022-10-31T09:54:58.613Z,80
2022-10-31T09:56:11.676Z,80
2022-10-31T09:57:24.624Z,80
2022-10-31T09:58:40.795Z,80
2022-10-31T09:59:50.715Z,80
2022-10-31T10:01:03.703Z,80
2022-10-31T10:02:16.745Z,80
2022-10-31T10:03:29.623Z,80
2022-10-31T10:04:42.634Z,80
2022-10-31T10:05:55.639Z,79
2022-10-31T10:07:08.630Z,80
2022-10-31T10:08:21.711Z,80
2022-10-31T10:09:34.795Z,80
2022-10-31T10:10:47.614Z,80
2022-10-31T10:12:00.646Z,80
2022-10-31T10:13:13.837Z,80
2022-10-31T10:14:26.356Z,80
2022-10-31T10:15:39.595Z,80
2022-10-31T10:16:52.695Z,79
2022-10-31T10:18:05.662Z,79
2022-10-31T10:19:18.628Z,79
2022-10-31T10:20:31.640Z,79
2022-10-31T10:21:44.636Z,79
2022-10-31T10:22:57.822Z,78
2022-10-31T10:24:10.664Z,78
2022-10-31T10:25:23.671Z,78
2022-10-31T10:26:36.709Z,78
2022-10-31T10:27:49.693Z,78
2022-10-31T10:29:02.725Z,78
2022-10-31T10:30:15.635Z,78
2022-10-31T10:31:28.521Z,78
2022-10-31T10:32:41.765Z,78
2022-10-31T10:33:54.635Z,78
2022-10-31T10:35:07.660Z,77
2022-10-31T10:36:20.643Z,77
2022-10-31T10:37:33.641Z,78
2022-10-31T10:38:46.673Z,77
2022-10-31T10:39:59.805Z,77
2022-10-31T10:41:12.631Z,77
2022-10-31T10:42:25.622Z,77
2022-10-31T10:43:38.692Z,77
2022-10-31T10:44:51.665Z,77
2022-10-31T10:46:09.221Z,77
2022-10-31T10:47:17.327Z,77
2022-10-31T10:48:30.703Z,77
2022-10-31T10:49:43.807Z,77
2022-10-31T10:50:56.650Z,77
2022-10-31T10:52:26.891Z,77
2022-10-31T10:53:22.621Z,77
2022-10-31T10:54:35.642Z,76
2022-10-31T10:55:48.635Z,77
2022-10-31T10:57:01.640Z,77
2022-10-31T10:58:14.805Z,77
2022-10-31T10:59:27.628Z,76
2022-10-31T11:00:40.694Z,76
2022-10-31T11:01:53.627Z,76
2022-10-31T11:03:06.967Z,76
2022-10-31T11:04:19.614Z,76
2022-10-31T11:05:32.615Z,76
2022-10-31T11:06:45.820Z,76
2022-10-31T11:07:58.826Z,76
2022-10-31T11:09:11.644Z,76
2022-10-31T11:10:24.626Z,76
2022-10-31T11:11:37.649Z,76
2022-10-31T11:12:50.636Z,76
2022-10-31T11:14:03.810Z,76
2022-10-31T11:15:16.643Z,76
2022-10-31T11:16:29.653Z,76
2022-10-31T11:17:42.801Z,75
2022-10-31T11:18:55.664Z,75
2022-10-31T11:20:08.592Z,75
2022-10-31T11:21:21.617Z,75
2022-10-31T11:22:34.599Z,74
2022-10-31T11:23:47.478Z,74
2022-10-31T11:25:00.479Z,75
2022-10-31T11:26:13.590Z,75
2022-10-31T11:27:26.726Z,74
2022-10-31T11:28:39.615Z,74
2022-10-31T11:30:00.581Z,74
2022-10-31T11:31:05.602Z,73
2022-10-31T11:32:18.632Z,73
2022-10-31T11:33:31.548Z,73
2022-10-31T11:34:44.493Z,72
2022-10-31T11:36:00.603Z,73
2022-10-31T11:37:10.778Z,73
2022-10-31T11:38:23.453Z,73
2022-10-31T11:39:36.622Z,73
2022-10-31T11:40:49.457Z,72
2022-10-31T11:42:08.863Z,72
2022-10-31T11:43:15.582Z,72
2022-10-31T11:44:28.607Z,71
2022-10-31T11:45:41.486Z,71
2022-10-31T11:46:54.284Z,71
2022-10-31T11:48:07.704Z,71
2022-10-31T11:49:20.588Z,71
2022-10-31T11:50:33.584Z,72
2022-10-31T11:51:46.554Z,71
2022-10-31T11:52:59.854Z,71
2022-10-31T11:54:12.676Z,71
2022-10-31T11:55:25.570Z,71
2022-10-31T11:56:38.585Z,71
2022-10-31T11:57:51.649Z,71
2022-10-31T11:59:04.769Z,71
2022-10-31T12:00:17.515Z,71
2022-10-31T12:01:30.558Z,70
2022-10-31T12:02:43.684Z,70
2022-10-31T12:03:56.478Z,70
2022-10-31T12:05:09.641Z,69
2022-10-31T12:06:22.639Z,69
2022-10-31T12:07:35.609Z,69
2022-10-31T12:08:48.603Z,69
2022-10-31T12:10:01.687Z,69
2022-10-31T12:11:14.632Z,69
2022-10-31T12:12:27.595Z,68
2022-10-31T12:13:40.776Z,67
2022-10-31T12:14:53.284Z,67
2022-10-31T12:16:06.668Z,66
2022-10-31T12:17:19.598Z,66
2022-10-31T12:18:32.566Z,66
2022-10-31T12:19:45.636Z,67
2022-10-31T12:20:58.617Z,66
2022-10-31T12:22:11.598Z,66
2022-10-31T12:23:24.578Z,66
2022-10-31T12:24:37.602Z,64
2022-10-31T12:25:50.595Z,65
2022-10-31T12:27:03.606Z,65
2022-10-31T12:28:16.624Z,65
2022-10-31T12:29:29.939Z,65
2022-10-31T12:30:42.635Z,65
2022-10-31T12:31:55.470Z,64
2022-10-31T12:33:08.442Z,64
2022-10-31T12:34:21.627Z,63
2022-10-31T12:35:34.607Z,64
2022-10-31T12:36:47.570Z,64
2022-10-31T12:38:00.824Z,63
2022-10-31T12:39:13.572Z,64
2022-10-31T12:40:26.778Z,63
2022-10-31T12:41:39.570Z,64
2022-10-31T12:42:52.454Z,64
2022-10-31T12:44:05.608Z,64
2022-10-31T12:45:18.305Z,64
2022-10-31T12:46:31.596Z,64
2022-10-31T12:47:44.617Z,63
2022-10-31T12:48:58.609Z,63
2022-10-31T12:50:10.612Z,63
2022-10-31T12:51:23.558Z,62
2022-10-31T12:52:37.113Z,63
2022-10-31T12:53:49.460Z,63
2022-10-31T12:55:02.727Z,63
2022-10-31T12:56:15.578Z,63
2022-10-31T12:58:41.592Z,63
2022-10-31T12:59:54.893Z,62
2022-10-31T13:01:07.756Z,63
2022-10-31T13:02:20.498Z,64
2022-10-31T13:03:33.547Z,64
2022-10-31T13:04:46.725Z,63
2022-10-31T13:05:59.579Z,63
2022-10-31T13:07:13.094Z,63
2022-10-31T13:08:25.569Z,63
2022-10-31T13:09:38.576Z,63
2022-10-31T13:10:51.465Z,63
2022-10-31T13:12:04.909Z,62
2022-10-31T13:13:17.563Z,62
2022-10-31T13:14:30.599Z,63
2022-10-31T13:15:43.575Z,63
2022-10-31T13:16:56.599Z,63
2022-10-31T13:18:09.599Z,63
2022-10-31T13:19:22.547Z,63
2022-10-31T13:20:35.564Z,63
2022-10-31T13:21:48.420Z,63
2022-10-31T13:23:01.763Z,63
2022-10-31T13:24:14.629Z,63
2022-10-31T13:25:28.047Z,63
2022-10-31T13:26:40.977Z,62
2022-10-31T13:27:53.541Z,62
2022-10-31T13:29:06.428Z,63
2022-10-31T13:30:20.599Z,63
2022-10-31T13:31:32.554Z,63
2022-10-31T13:32:45.583Z,63
2022-10-31T13:33:58.537Z,62
2022-10-31T13:35:11.613Z,62
2022-10-31T13:36:24.592Z,63
2022-10-31T13:37:37.732Z,63
2022-10-31T13:38:50.488Z,63
2022-10-31T13:40:03.580Z,62
2022-10-31T13:41:16.553Z,62
2022-10-31T13:42:29.567Z,61
2022-10-31T13:43:42.549Z,62
2022-10-31T13:44:55.575Z,62
2022-10-31T13:46:08.523Z,62
2022-10-31T13:47:21.564Z,62
2022-10-31T13:48:34.684Z,62
2022-10-31T13:49:47.609Z,62
2022-10-31T13:51:00.627Z,62
2022-10-31T13:52:13.543Z,62
2022-10-31T13:53:26.838Z,62
2022-10-31T13:54:41.561Z,63
2022-10-31T13:55:52.919Z,64
2022-10-31T13:57:05.573Z,63
2022-10-31T13:58:18.563Z,63
2022-10-31T13:59:31.676Z,62
2022-10-31T14:00:45.138Z,62
2022-10-31T14:01:57.580Z,62
2022-10-31T14:03:10.613Z,62
2022-10-31T14:04:26.500Z,62
2022-10-31T14:05:36.562Z,62
2022-10-31T14:06:49.715Z,63
2022-10-31T14:08:02.898Z,63
2022-10-31T14:09:15.553Z,62
2022-10-31T14:10:28.785Z,62
2022-10-31T14:11:41.610Z,62
2022-10-31T14:12:54.422Z,62
2022-10-31T14:14:07.641Z,62
2022-10-31T14:15:20.533Z,62
2022-10-31T14:16:33.714Z,62
2022-10-31T14:17:46.478Z,62
2022-10-31T14:18:59.438Z,62
2022-10-31T14:20:12.612Z,62
2022-10-31T14:21:25.600Z,62
2022-10-31T14:22:44.121Z,63
2022-10-31T14:23:55.156Z,63
2022-10-31T14:25:04.720Z,63
2022-10-31T14:26:17.560Z,63
2022-10-31T14:27:30.430Z,63
2022-10-31T14:28:43.418Z,63
2022-10-31T14:29:56.435Z,63
2022-10-31T14:31:09.558Z,63
2022-10-31T14:32:22.594Z,63
2022-10-31T14:33:35.735Z,63
2022-10-31T14:34:49.081Z,63
2022-10-31T14:36:01.611Z,63
2022-10-31T14:37:15.137Z,63
2022-10-31T14:38:27.727Z,63
2022-10-31T14:39:40.544Z,63
2022-10-31T14:40:53.529Z,64
2022-10-31T14:42:06.826Z,63
2022-10-31T14:43:19.729Z,63
2022-10-31T14:44:32.892Z,63
2022-10-31T14:45:45.724Z,63
2022-10-31T14:46:58.558Z,63
2022-10-31T14:48:12.095Z,63
2022-10-31T14:49:24.575Z,63
2022-10-31T14:50:37.227Z,63
2022-10-31T14:51:51.069Z,64
2022-10-31T14:53:03.724Z,64
2022-10-31T14:54:16.469Z,64
2022-10-31T14:55:29.564Z,63
2022-10-31T14:56:42.583Z,63
2022-10-31T14:57:55.575Z,64
2022-10-31T14:59:08.677Z,64
2022-10-31T15:00:21.535Z,63
2022-10-31T15:01:34.725Z,64
2022-10-31T15:02:47.487Z,64
2022-10-31T15:04:22.147Z,63
2022-10-31T15:05:13.503Z,63
2022-10-31T15:06:26.487Z,63
2022-10-31T15:07:39.478Z,64
2022-10-31T15:08:52.493Z,63
2022-10-31T15:10:05.617Z,63
2022-10-31T15:11:18.385Z,63
2022-10-31T15:12:31.368Z,64
2022-10-31T15:13:44.664Z,63
2022-10-31T15:14:57.497Z,63
2022-10-31T15:16:10.496Z,62
2022-10-31T15:17:23.480Z,62
2022-10-31T15:18:36.354Z,63
2022-10-31T15:19:49.357Z,64
2022-10-31T15:21:02.641Z,62
2022-10-31T15:22:15.539Z,62
2022-10-31T15:23:28.494Z,62
2022-10-31T15:24:41.645Z,61
2022-10-31T15:25:54.486Z,61
2022-10-31T15:27:07.571Z,61
2022-10-31T15:28:20.523Z,61
2022-10-31T15:29:33.483Z,62
2022-10-31T15:30:46.455Z,62
2022-10-31T15:31:59.496Z,61
2022-10-31T15:33:12.478Z,60
2022-10-31T15:34:25.519Z,61
2022-10-31T15:35:38.376Z,62
2022-10-31T15:36:51.497Z,61
2022-10-31T15:38:04.690Z,61
2022-10-31T15:39:17.640Z,62
2022-10-31T15:40:30.499Z,61
2022-10-31T15:41:43.501Z,60
2022-10-31T15:42:56.546Z,60
2022-10-31T15:44:09.466Z,60
2022-10-31T15:45:22.447Z,60
2022-10-31T15:46:35.646Z,60
2022-10-31T15:47:48.495Z,60
2022-10-31T15:49:01.348Z,60
2022-10-31T15:50:14.471Z,60
2022-10-31T15:51:27.512Z,61
2022-10-31T15:52:45.254Z,61
2022-10-31T15:53:53.469Z,60
2022-10-31T15:56:19.478Z,60
2022-10-31T15:57:32.999Z,59
2022-10-31T15:58:45.672Z,59
2022-10-31T15:59:58.459Z,60
2022-10-31T16:01:11.484Z,60
2022-10-31T16:02:24.743Z,60
2022-10-31T16:03:37.467Z,61
2022-10-31T16:04:50.363Z,61
2022-10-31T16:06:03.462Z,60
2022-10-31T16:07:23.110Z,60
2022-10-31T16:08:29.355Z,60
2022-10-31T16:09:42.477Z,59
2022-10-31T16:10:55.341Z,59
2022-10-31T16:12:08.514Z,59
2022-10-31T16:13:21.432Z,59
2022-10-31T16:14:34.464Z,60
2022-10-31T16:15:47.434Z,60
2022-10-31T16:17:00.446Z,59
2022-10-31T16:18:13.452Z,59
2022-10-31T16:19:26.494Z,60
2022-10-31T16:20:39.448Z,60
2022-10-31T16:21:52.437Z,60
2022-10-31T16:23:05.412Z,59
2022-10-31T16:24:18.778Z,59
2022-10-31T16:25:31.450Z,59
2022-10-31T16:26:44.453Z,59
2022-10-31T16:27:57.446Z,59
2022-10-31T16:29:10.375Z,59
2022-10-31T16:30:23.368Z,59
2022-10-31T16:31:36.486Z,59
2022-10-31T16:32:49.556Z,59
2022-10-31T16:34:02.459Z,59
2022-10-31T16:35:15.469Z,60
2022-10-31T16:36:35.137Z,60
2022-10-31T16:37:41.455Z,59
2022-10-31T16:38:54.516Z,59
2022-10-31T16:40:07.704Z,59
2022-10-31T16:41:20.452Z,59
2022-10-31T16:42:33.483Z,60
2022-10-31T16:43:52.360Z,60
2022-10-31T16:44:59.467Z,60
2022-10-31T16:46:12.591Z,59
2022-10-31T16:47:28.684Z,59
2022-10-31T16:48:37.952Z,59
2022-10-31T16:49:51.546Z,59
2022-10-31T16:51:04.448Z,60
2022-10-31T16:52:17.472Z,59
2022-10-31T16:53:30.458Z,59
2022-10-31T16:54:43.329Z,59
2022-10-31T16:55:56.457Z,59
2022-10-31T16:57:09.468Z,59
2022-10-31T16:58:22.461Z,59
2022-10-31T16:59:35.462Z,59
2022-10-31T17:00:48.272Z,59
2022-10-31T17:02:01.625Z,60
2022-10-31T17:03:14.538Z,60
2022-10-31T17:04:27.470Z,60
2022-10-31T17:05:40.437Z,60
2022-10-31T17:06:53.455Z,60
2022-10-31T17:08:06.432Z,60
2022-10-31T17:09:19.431Z,60
2022-10-31T17:10:32.452Z,60
2022-10-31T17:11:49.590Z,60
2022-10-31T17:12:58.470Z,60
2022-10-31T17:14:11.531Z,60
2022-10-31T17:15:24.427Z,60
2022-10-31T17:16:37.252Z,60
2022-10-31T17:17:50.471Z,59
2022-10-31T17:19:03.486Z,59
2022-10-31T17:20:16.427Z,60
2022-10-31T17:21:29.437Z,60
2022-10-31T17:22:42.578Z,60
2022-10-31T17:23:55.446Z,60
2022-10-31T17:25:08.436Z,60
2022-10-31T17:26:21.765Z,59
2022-10-31T17:27:34.466Z,59
2022-10-31T17:28:47.470Z,59
2022-10-31T17:30:00.446Z,59
2022-10-31T17:31:13.464Z,59
2022-10-31T17:32:26.524Z,60
2022-10-31T17:33:39.553Z,60
2022-10-31T17:34:52.571Z,60
2022-10-31T17:36:05.441Z,60
2022-10-31T17:37:18.432Z,60
2022-10-31T17:38:31.420Z,60
2022-10-31T17:39:44.416Z,60
2022-10-31T17:40:57.433Z,59
2022-10-31T17:42:10.310Z,60
2022-10-31T17:43:23.552Z,60
2022-10-31T17:44:36.330Z,59
2022-10-31T17:45:49.411Z,60
2022-10-31T17:47:02.424Z,60
2022-10-31T17:48:15.461Z,60